Time;durP1;ratioP1;P1;durP2;ratioP2;P2;SDS_P1;SDS_P2;PMS_P1;PMS_P2;Temp;Humidity;BMP_temperature;BMP_pressure;BME280_temperature;BME280_humidity;BME280_pressure;Samples;Min_cycle;Max_cycle;Signal;HPM_P1;HPM_P2
2021/04/11 00:00:25;;;;;;;14.80;5.65;;;;;;;;;;5128567;27;20520;-74
2021/04/11 00:02:53;;;;;;;13.25;6.25;;;;;;;;;;5141892;27;20039;-74
2021/04/11 00:05:21;;;;;;;12.90;6.18;;;;;;;;;;5129230;27;20039;-74
2021/04/11 00:07:47;;;;;;;14.40;5.53;;;;;;;;;;5106340;27;20043;-74
2021/04/11 00:10:17;;;;;;;13.40;4.60;;;;;;;;;;5138029;27;20103;-74
2021/04/11 00:12:44;;;;;;;13.60;4.35;;;;;;;;;;5142982;27;20035;-74
2021/04/11 00:15:11;;;;;;;11.90;4.50;;;;;;;;;;5141840;27;20358;-74
2021/04/11 00:17:37;;;;;;;8.60;4.32;;;;;;;;;;5138926;27;20039;-73
2021/04/11 00:20:04;;;;;;;13.77;5.13;;;;;;;;;;5124872;27;20066;-74
2021/04/11 00:22:30;;;;;;;13.18;5.25;;;;;;;;;;5124944;27;20469;-73
2021/04/11 00:24:56;;;;;;;12.48;6.82;;;;;;;;;;5147086;27;20047;-74
2021/04/11 00:27:26;;;;;;;9.50;5.60;;;;;;;;;;5143386;27;20053;-73
2021/04/11 00:29:52;;;;;;;8.60;4.78;;;;;;;;;;5148576;27;20505;-73
2021/04/11 00:32:18;;;;;;;11.38;4.80;;;;;;;;;;5147536;27;20039;-73
2021/04/11 00:34:44;;;;;;;13.52;4.57;;;;;;;;;;5152250;27;20030;-73
2021/04/11 00:37:10;;;;;;;11.43;5.20;;;;;;;;;;5109773;27;20119;-73
2021/04/11 00:39:36;;;;;;;12.52;4.65;;;;;;;;;;5125530;27;20052;-73
2021/04/11 00:42:10;;;;;;;17.55;5.70;;;;;;;;;;5137347;27;20118;-73
2021/04/11 00:44:36;;;;;;;15.33;5.97;;;;;;;;;;5148666;27;20042;-73
2021/04/11 00:47:04;;;;;;;15.43;5.75;;;;;;;;;;5130793;27;20043;-73
2021/04/11 00:49:35;;;;;;;11.93;6.03;;;;;;;;;;5127061;27;20043;-73
2021/04/11 00:52:02;;;;;;;12.48;6.25;;;;;;;;;;5146429;27;20085;-74
2021/04/11 00:54:28;;;;;;;10.55;6.53;;;;;;;;;;5149368;27;20100;-74
2021/04/11 00:56:55;;;;;;;23.13;7.82;;;;;;;;;;5103618;27;20183;-74
2021/04/11 00:59:21;;;;;;;14.77;7.15;;;;;;;;;;5144978;27;20110;-74
2021/04/11 01:01:48;;;;;;;18.73;7.97;;;;;;;;;;5143840;27;20362;-74
2021/04/11 01:04:16;;;;;;;18.65;9.18;;;;;;;;;;5116988;27;20043;-75
2021/04/11 01:06:44;;;;;;;12.50;7.25;;;;;;;;;;5146964;27;20046;-74
2021/04/11 01:09:31;;;;;;;15.95;7.85;;;;;;;;;;5143459;27;20066;-73
2021/04/11 01:11:58;;;;;;;15.57;7.85;;;;;;;;;;5126006;27;20042;-73
2021/04/11 01:14:25;;;;;;;17.63;9.30;;;;;;;;;;5150093;27;20045;-74
2021/04/11 01:16:52;;;;;;;17.25;9.30;;;;;;;;;;5147615;27;20288;-74
2021/04/11 01:19:23;;;;;;;17.38;8.43;;;;;;;;;;5125374;27;20525;-74
2021/04/11 01:22:05;;;;;;;12.68;8.57;;;;;;;;;;5131814;27;20087;-74
2021/04/11 01:24:37;;;;;;;17.80;9.68;;;;;;;;;;5150429;27;20389;-74
2021/04/11 01:27:03;;;;;;;20.35;9.85;;;;;;;;;;5131184;27;20038;-73
2021/04/11 01:29:29;;;;;;;18.30;9.43;;;;;;;;;;5128599;27;20038;-73
2021/04/11 01:31:56;;;;;;;19.88;9.10;;;;;;;;;;5128196;27;20035;-73
2021/04/11 01:34:22;;;;;;;12.20;7.05;;;;;;;;;;5127859;27;20066;-74
2021/04/11 01:36:49;;;;;;;15.63;7.60;;;;;;;;;;5114881;27;20057;-73
2021/04/11 01:39:17;;;;;;;16.65;7.40;;;;;;;;;;5131745;27;20049;-73
2021/04/11 01:41:45;;;;;;;12.55;6.35;;;;;;;;;;5147403;27;20042;-73
2021/04/11 01:44:12;;;;;;;8.77;5.47;;;;;;;;;;5149645;27;20059;-74
2021/04/11 01:46:39;;;;;;;9.98;5.30;;;;;;;;;;5149266;27;20105;-73
2021/04/11 01:49:05;;;;;;;15.80;5.43;;;;;;;;;;5151544;27;20042;-73
2021/04/11 01:51:33;;;;;;;16.73;6.78;;;;;;;;;;5146845;27;20031;-74
2021/04/11 01:54:01;;;;;;;12.90;6.25;;;;;;;;;;5129399;27;20042;-74
2021/04/11 01:56:28;;;;;;;10.50;5.60;;;;;;;;;;5152795;27;20042;-74
2021/04/11 01:58:54;;;;;;;12.93;5.75;;;;;;;;;;5149754;27;20058;-74
2021/04/11 02:01:20;;;;;;;11.20;5.60;;;;;;;;;;5147068;27;20038;-74
2021/04/11 02:03:47;;;;;;;14.55;5.80;;;;;;;;;;5144893;27;20488;-74
2021/04/11 02:06:14;;;;;;;10.93;5.53;;;;;;;;;;5142184;27;20034;-75
2021/04/11 02:08:45;;;;;;;7.60;4.40;;;;;;;;;;5150347;27;20126;-74
2021/04/11 02:11:11;;;;;;;10.82;4.80;;;;;;;;;;5120557;27;20075;-75
2021/04/11 02:13:39;;;;;;;4.40;4.00;;;;;;;;;;5137026;27;20043;-74
2021/04/11 02:16:06;;;;;;;7.28;4.57;;;;;;;;;;5128190;27;20103;-74
2021/04/11 02:18:34;;;;;;;7.95;4.97;;;;;;;;;;5131676;27;21237;-74
2021/04/11 02:21:01;;;;;;;8.98;5.28;;;;;;;;;;5131527;27;20049;-74
2021/04/11 02:23:27;;;;;;;6.22;4.65;;;;;;;;;;5124554;27;20083;-75
2021/04/11 02:25:55;;;;;;;9.75;6.75;;;;;;;;;;5150946;27;20424;-75
2021/04/11 02:28:26;;;;;;;9.48;5.18;;;;;;;;;;5152665;27;20463;-74
2021/04/11 02:31:17;;;;;;;12.95;6.00;;;;;;;;;;5145557;27;20439;-74
2021/04/11 02:33:46;;;;;;;10.55;5.72;;;;;;;;;;5128491;27;20465;-74
2021/04/11 02:36:12;;;;;;;7.50;5.18;;;;;;;;;;5136419;27;20463;-74
2021/04/11 02:38:38;;;;;;;11.02;6.00;;;;;;;;;;5127891;27;20110;-74
2021/04/11 02:41:05;;;;;;;6.10;3.92;;;;;;;;;;5126727;28;20447;-74
2021/04/11 02:43:32;;;;;;;8.23;4.47;;;;;;;;;;5146784;27;20038;-74
2021/04/11 02:45:58;;;;;;;5.88;4.53;;;;;;;;;;5150498;27;20042;-74
2021/04/11 02:48:24;;;;;;;6.57;3.38;;;;;;;;;;5153235;27;20370;-74
2021/04/11 02:50:50;;;;;;;10.77;3.60;;;;;;;;;;5154270;27;20030;-74
2021/04/11 02:53:24;;;;;;;8.48;3.53;;;;;;;;;;5149608;27;20094;-72
2021/04/11 02:55:50;;;;;;;4.97;2.40;;;;;;;;;;5153654;27;20066;-74
2021/04/11 02:58:19;;;;;;;5.10;2.20;;;;;;;;;;5128557;27;20451;-74
2021/04/11 03:00:46;;;;;;;5.80;2.20;;;;;;;;;;5154898;27;20074;-74
2021/04/11 03:03:13;;;;;;;5.07;2.80;;;;;;;;;;5141500;27;20050;-74
2021/04/11 03:05:39;;;;;;;6.07;3.25;;;;;;;;;;5139719;27;20047;-73
2021/04/11 03:08:07;;;;;;;6.40;2.53;;;;;;;;;;5139056;27;20039;-74
2021/04/11 03:10:52;;;;;;;6.03;2.95;;;;;;;;;;5141452;27;20474;-73
2021/04/11 03:13:19;;;;;;;6.22;2.38;;;;;;;;;;5149711;27;20043;-74
2021/04/11 03:15:46;;;;;;;6.40;2.85;;;;;;;;;;5153430;27;20058;-73
2021/04/11 03:18:13;;;;;;;11.10;3.10;;;;;;;;;;5146804;27;20046;-73
2021/04/11 03:20:40;;;;;;;5.03;3.15;;;;;;;;;;5153620;27;20042;-73
2021/04/11 03:23:08;;;;;;;7.95;3.30;;;;;;;;;;5144933;27;20133;-74
2021/04/11 03:25:36;;;;;;;2.83;2.25;;;;;;;;;;5149760;27;20035;-73
2021/04/11 03:28:07;;;;;;;7.78;2.85;;;;;;;;;;5137042;27;20039;-74
2021/04/11 03:30:47;;;;;;;7.60;2.60;;;;;;;;;;5154203;27;20043;-74
2021/04/11 03:33:18;;;;;;;4.03;3.05;;;;;;;;;;5140377;27;20115;-74
2021/04/11 03:35:46;;;;;;;7.32;3.55;;;;;;;;;;5138548;27;20070;-74
2021/04/11 03:38:14;;;;;;;8.77;3.50;;;;;;;;;;5146963;27;20123;-74
2021/04/11 03:40:41;;;;;;;9.30;3.58;;;;;;;;;;5153197;27;20035;-74
2021/04/11 03:43:13;;;;;;;8.73;4.20;;;;;;;;;;5144338;27;20049;-73
2021/04/11 03:45:39;;;;;;;4.93;3.38;;;;;;;;;;5153147;27;20046;-74
2021/04/11 03:48:11;;;;;;;5.78;2.97;;;;;;;;;;5134487;27;20378;-74
2021/04/11 03:50:44;;;;;;;7.35;3.22;;;;;;;;;;5133554;27;20122;-73
2021/04/11 03:53:19;;;;;;;5.97;2.80;;;;;;;;;;5121923;27;20505;-74
2021/04/11 03:55:47;;;;;;;6.55;3.30;;;;;;;;;;5135858;27;20492;-74
2021/04/11 03:58:22;;;;;;;7.40;2.65;;;;;;;;;;5151435;27;20157;-74
2021/04/11 04:00:58;;;;;;;8.63;2.53;;;;;;;;;;5147908;27;20043;-73
2021/04/11 04:03:27;;;;;;;5.43;3.10;;;;;;;;;;5147400;27;20063;-73
2021/04/11 04:05:54;;;;;;;6.90;2.40;;;;;;;;;;5117783;27;20072;-73
2021/04/11 04:08:20;;;;;;;6.57;3.22;;;;;;;;;;5108245;27;20046;-73
2021/04/11 04:11:07;;;;;;;5.15;2.85;;;;;;;;;;5142656;27;20106;-73
2021/04/11 04:13:49;;;;;;;8.52;2.65;;;;;;;;;;5122273;27;20051;-74
2021/04/11 04:16:16;;;;;;;6.45;2.53;;;;;;;;;;5143482;27;20061;-74
2021/04/11 04:18:55;;;;;;;5.40;2.50;;;;;;;;;;5143629;27;20043;-73
2021/04/11 04:21:24;;;;;;;9.23;2.90;;;;;;;;;;5134707;27;20481;-74
2021/04/11 04:24:09;;;;;;;4.28;2.40;;;;;;;;;;5140546;27;20461;-73
2021/04/11 04:26:39;;;;;;;5.30;2.70;;;;;;;;;;5135104;27;20047;-73
2021/04/11 04:29:27;;;;;;;7.85;2.78;;;;;;;;;;5151005;27;20041;-73
2021/04/11 04:32:02;;;;;;;4.72;2.25;;;;;;;;;;5134736;27;20091;-73
2021/04/11 04:34:38;;;;;;;5.50;2.40;;;;;;;;;;5149652;27;20039;-73
2021/04/11 04:37:25;;;;;;;5.03;2.00;;;;;;;;;;5148779;27;20050;-73
2021/04/11 04:39:57;;;;;;;6.00;1.77;;;;;;;;;;5150096;27;20041;-73
2021/04/11 04:42:41;;;;;;;6.20;2.50;;;;;;;;;;5152266;27;20034;-73
2021/04/11 04:45:08;;;;;;;6.00;2.65;;;;;;;;;;5122586;27;20086;-73
2021/04/11 04:47:42;;;;;;;6.40;2.28;;;;;;;;;;5150814;27;20397;-73
2021/04/11 04:50:18;;;;;;;6.68;2.10;;;;;;;;;;5138654;27;20055;-73
2021/04/11 04:52:46;;;;;;;5.45;1.90;;;;;;;;;;5152600;27;20099;-73
2021/04/11 04:55:15;;;;;;;9.73;2.42;;;;;;;;;;5141501;27;20039;-73
2021/04/11 04:57:44;;;;;;;5.57;1.95;;;;;;;;;;5138710;27;20042;-73
2021/04/11 05:00:14;;;;;;;5.65;2.20;;;;;;;;;;5141568;27;20055;-74
2021/04/11 05:03:02;;;;;;;4.72;2.15;;;;;;;;;;5145392;27;20036;-74
2021/04/11 05:05:29;;;;;;;6.45;2.45;;;;;;;;;;5126414;27;20038;-73
2021/04/11 05:08:00;;;;;;;8.32;3.08;;;;;;;;;;5148581;27;20073;-73
2021/04/11 05:10:38;;;;;;;9.00;3.33;;;;;;;;;;5120869;27;20045;-74
2021/04/11 05:13:15;;;;;;;7.80;3.25;;;;;;;;;;5147727;27;20046;-73
2021/04/11 05:15:43;;;;;;;7.50;3.42;;;;;;;;;;5124851;27;20117;-73
2021/04/11 05:18:33;;;;;;;7.00;3.58;;;;;;;;;;5145570;27;20046;-74
2021/04/11 05:21:01;;;;;;;5.68;3.72;;;;;;;;;;5130167;27;21962;-73
2021/04/11 05:23:29;;;;;;;8.07;3.75;;;;;;;;;;5129091;27;20092;-73
2021/04/11 05:26:02;;;;;;;5.43;3.33;;;;;;;;;;5125418;27;20051;-74
2021/04/11 05:28:48;;;;;;;7.43;3.35;;;;;;;;;;5129989;27;20038;-73
2021/04/11 05:31:16;;;;;;;11.95;4.00;;;;;;;;;;5128562;27;20409;-74
2021/04/11 05:33:43;;;;;;;9.27;3.13;;;;;;;;;;5150866;27;20100;-74
2021/04/11 05:36:09;;;;;;;11.60;3.03;;;;;;;;;;5128078;27;20501;-73
2021/04/11 05:38:35;;;;;;;7.90;3.00;;;;;;;;;;5127299;27;20075;-73
2021/04/11 05:41:10;;;;;;;7.10;3.28;;;;;;;;;;5137966;27;20046;-73
2021/04/11 05:43:56;;;;;;;6.88;3.10;;;;;;;;;;5130092;27;20039;-74
2021/04/11 05:46:31;;;;;;;7.82;3.20;;;;;;;;;;5121809;27;20342;-74
2021/04/11 05:49:03;;;;;;;8.73;3.10;;;;;;;;;;5149602;27;20126;-73
2021/04/11 05:51:36;;;;;;;9.18;3.47;;;;;;;;;;5146020;27;20214;-74
2021/04/11 05:54:14;;;;;;;14.35;3.25;;;;;;;;;;5125881;27;20099;-73
2021/04/11 05:56:43;;;;;;;8.07;2.92;;;;;;;;;;5126363;27;20038;-74
2021/04/11 05:59:11;;;;;;;5.55;2.65;;;;;;;;;;5137709;27;20047;-74
2021/04/11 06:01:40;;;;;;;14.90;3.17;;;;;;;;;;5148575;27;20051;-74
2021/04/11 06:04:09;;;;;;;10.05;2.95;;;;;;;;;;5123112;27;20146;-74
2021/04/11 06:06:54;;;;;;;11.18;3.03;;;;;;;;;;5141611;27;20394;-73
2021/04/11 06:09:26;;;;;;;7.50;2.20;;;;;;;;;;5124621;27;20389;-74
2021/04/11 06:12:05;;;;;;;8.50;3.13;;;;;;;;;;5144880;27;20072;-74
2021/04/11 06:14:34;;;;;;;10.07;2.40;;;;;;;;;;5149970;27;20034;-74
2021/04/11 06:17:04;;;;;;;7.28;2.92;;;;;;;;;;5144454;27;20039;-73
2021/04/11 06:19:30;;;;;;;9.35;3.13;;;;;;;;;;5127037;27;20041;-74
2021/04/11 06:22:05;;;;;;;5.70;2.10;;;;;;;;;;5129961;27;20092;-73
2021/04/11 06:24:46;;;;;;;6.68;2.22;;;;;;;;;;5136636;27;20062;-73
2021/04/11 06:27:16;;;;;;;7.95;2.20;;;;;;;;;;5156156;27;20395;-74
2021/04/11 06:29:51;;;;;;;6.80;1.80;;;;;;;;;;5128860;27;20043;-74
2021/04/11 06:32:18;;;;;;;4.15;2.55;;;;;;;;;;5124618;27;20043;-74
2021/04/11 06:34:51;;;;;;;9.13;2.33;;;;;;;;;;5123670;27;20046;-74
2021/04/11 06:37:20;;;;;;;8.95;2.65;;;;;;;;;;5150574;27;20047;-74
2021/04/11 06:39:47;;;;;;;16.65;2.88;;;;;;;;;;5133477;27;20043;-74
2021/04/11 06:42:16;;;;;;;8.13;2.08;;;;;;;;;;5151631;27;20051;-74
2021/04/11 06:45:00;;;;;;;8.75;2.35;;;;;;;;;;5153793;27;20035;-74
2021/04/11 06:48:02;;;;;;;6.25;1.90;;;;;;;;;;5146353;27;20452;-74
2021/04/11 06:50:39;;;;;;;5.85;2.05;;;;;;;;;;5041921;28;20381;-75
2021/04/11 06:53:23;;;;;;;14.35;2.13;;;;;;;;;;5138905;27;20121;-75
2021/04/11 06:55:53;;;;;;;8.55;1.77;;;;;;;;;;5156029;27;20043;-75
2021/04/11 06:58:28;;;;;;;5.25;2.03;;;;;;;;;;5124923;27;20042;-72
2021/04/11 07:01:14;;;;;;;11.90;2.40;;;;;;;;;;5144150;27;20043;-72
2021/04/11 07:03:40;;;;;;;9.30;2.90;;;;;;;;;;5147024;27;20110;-72
2021/04/11 07:06:15;;;;;;;12.55;2.35;;;;;;;;;;5144545;27;20077;-72
2021/04/11 07:08:44;;;;;;;9.10;2.60;;;;;;;;;;5151760;27;20035;-72
2021/04/11 07:11:29;;;;;;;11.60;2.22;;;;;;;;;;5151293;27;20043;-72
2021/04/11 07:14:07;;;;;;;9.85;2.78;;;;;;;;;;5153964;27;20130;-73
2021/04/11 07:16:43;;;;;;;6.82;2.30;;;;;;;;;;5142775;27;20042;-72
2021/04/11 07:19:12;;;;;;;9.50;2.45;;;;;;;;;;5153389;27;20039;-72
2021/04/11 07:21:57;;;;;;;7.30;2.20;;;;;;;;;;5130541;27;20129;-72
2021/04/11 07:24:26;;;;;;;9.02;2.08;;;;;;;;;;5149810;27;20065;-73
2021/04/11 07:27:11;;;;;;;10.45;2.42;;;;;;;;;;5134589;27;20042;-73
2021/04/11 07:29:50;;;;;;;9.68;2.40;;;;;;;;;;5153031;27;20401;-73
2021/04/11 07:32:16;;;;;;;10.00;3.28;;;;;;;;;;5144070;27;20499;-73
2021/04/11 07:34:52;;;;;;;7.40;2.40;;;;;;;;;;5153158;27;20045;-73
2021/04/11 07:37:30;;;;;;;10.23;3.25;;;;;;;;;;5151862;27;20046;-74
2021/04/11 07:40:12;;;;;;;7.65;2.13;;;;;;;;;;5151866;27;20042;-73
2021/04/11 07:42:53;;;;;;;8.63;1.83;;;;;;;;;;5134194;27;20031;-74
2021/04/11 07:45:38;;;;;;;9.10;1.70;;;;;;;;;;5123891;27;20047;-74
2021/04/11 07:48:19;;;;;;;6.90;2.08;;;;;;;;;;5141877;27;20410;-73
2021/04/11 07:51:00;;;;;;;9.30;2.67;;;;;;;;;;5145800;27;20390;-74
2021/04/11 07:53:32;;;;;;;12.32;2.40;;;;;;;;;;5148828;27;20041;-74
2021/04/11 07:55:58;;;;;;;8.93;2.10;;;;;;;;;;5148518;27;20430;-74
2021/04/11 07:58:42;;;;;;;9.95;2.30;;;;;;;;;;5142091;27;20043;-80
2021/04/11 08:01:24;;;;;;;6.93;1.75;;;;;;;;;;5132846;27;20064;-72
2021/04/11 08:03:59;;;;;;;6.30;2.13;;;;;;;;;;5123353;27;20035;-73
2021/04/11 08:06:43;;;;;;;6.03;1.40;;;;;;;;;;5139055;27;20130;-74
2021/04/11 08:09:09;;;;;;;;;;;;;;;;;;5140317;27;20366;-73
2021/04/11 08:11:55;;;;;;;7.93;2.33;;;;;;;;;;5130694;27;20407;-73
2021/04/11 08:14:36;;;;;;;7.88;1.83;;;;;;;;;;5145275;27;20076;-72
2021/04/11 08:17:06;;;;;;;9.38;1.50;;;;;;;;;;5127020;27;20057;-73
2021/04/11 08:19:53;;;;;;;8.68;2.05;;;;;;;;;;5123765;27;20035;-73
2021/04/11 08:22:25;;;;;;;6.85;1.80;;;;;;;;;;5116517;27;20092;-72
2021/04/11 08:25:03;;;;;;;5.72;1.70;;;;;;;;;;5140698;27;20035;-73
2021/04/11 08:27:42;;;;;;;13.93;2.40;;;;;;;;;;5133354;27;20129;-73
2021/04/11 08:30:11;;;;;;;8.63;1.98;;;;;;;;;;5131891;27;20342;-74
2021/04/11 08:32:56;;;;;;;7.72;1.70;;;;;;;;;;5151971;27;20043;-73
2021/04/11 08:35:37;;;;;;;5.05;1.63;;;;;;;;;;5147543;27;20130;-73
2021/04/11 08:38:03;;;;;;;4.78;1.73;;;;;;;;;;5148444;27;20477;-73
2021/04/11 08:40:29;;;;;;;7.97;1.70;;;;;;;;;;5138393;27;20042;-74
2021/04/11 08:43:14;;;;;;;5.80;1.92;;;;;;;;;;5126591;27;20485;-75
2021/04/11 08:45:59;;;;;;;12.00;2.40;;;;;;;;;;5126258;27;20053;-73
2021/04/11 08:48:45;;;;;;;7.20;1.98;;;;;;;;;;5146603;27;20050;-73
2021/04/11 08:51:23;;;;;;;11.43;2.58;;;;;;;;;;5126274;27;20505;-74
2021/04/11 08:53:49;;;;;;;11.98;2.40;;;;;;;;;;5148869;27;20393;-74
2021/04/11 08:56:34;;;;;;;9.90;1.92;;;;;;;;;;5146160;27;20035;-74
2021/04/11 08:59:12;;;;;;;8.95;2.17;;;;;;;;;;5150172;27;20053;-73
2021/04/11 09:01:53;;;;;;;6.75;1.83;;;;;;;;;;5126052;27;20078;-73
2021/04/11 09:04:25;;;;;;;9.10;2.08;;;;;;;;;;5137836;27;20064;-74
2021/04/11 09:07:00;;;;;;;9.00;2.03;;;;;;;;;;5146152;27;20062;-73
2021/04/11 09:09:26;;;;;;;7.00;2.17;;;;;;;;;;5148402;27;20122;-73
2021/04/11 09:11:58;;;;;;;6.32;1.77;;;;;;;;;;5134343;27;20393;-73
2021/04/11 09:14:27;;;;;;;6.38;1.98;;;;;;;;;;5145067;27;20046;-73
2021/04/11 09:17:03;;;;;;;8.75;2.38;;;;;;;;;;5145829;27;20580;-75
2021/04/11 09:19:34;;;;;;;8.45;1.60;;;;;;;;;;5148375;27;20385;-85
2021/04/11 09:22:00;;;;;;;6.15;2.08;;;;;;;;;;5138963;27;20035;-79
2021/04/11 09:24:26;;;;;;;7.25;1.60;;;;;;;;;;5127552;27;20478;-73
2021/04/11 09:27:11;;;;;;;8.52;1.90;;;;;;;;;;5142609;27;20034;-73
2021/04/11 09:29:37;;;;;;;9.98;2.53;;;;;;;;;;5126636;27;20042;-73
2021/04/11 09:32:10;;;;;;;9.98;1.98;;;;;;;;;;5142792;27;20396;-74
2021/04/11 09:34:39;;;;;;;4.90;1.90;;;;;;;;;;5145042;27;20035;-74
2021/04/11 09:37:05;;;;;;;5.57;1.77;;;;;;;;;;5132874;27;20057;-75
2021/04/11 09:39:50;;;;;;;6.75;2.03;;;;;;;;;;5150360;27;20103;-74
2021/04/11 09:42:16;;;;;;;8.65;1.70;;;;;;;;;;5128703;27;20054;-74
2021/04/11 09:45:00;;;;;;;10.15;2.03;;;;;;;;;;5131846;27;20049;-74
2021/04/11 09:47:29;;;;;;;9.43;1.85;;;;;;;;;;5149576;27;20125;-74
2021/04/11 09:49:55;;;;;;;5.80;2.15;;;;;;;;;;5149981;27;20086;-76
2021/04/11 09:52:40;;;;;;;8.48;2.70;;;;;;;;;;5126798;27;20062;-76
2021/04/11 09:55:12;;;;;;;8.20;1.83;;;;;;;;;;5126644;27;20039;-75
2021/04/11 09:57:38;;;;;;;6.55;2.05;;;;;;;;;;5140988;27;20039;-81
2021/04/11 10:00:15;;;;;;;6.88;2.08;;;;;;;;;;5122407;27;20070;-73
2021/04/11 10:02:56;;;;;;;3.05;1.30;;;;;;;;;;5128888;27;20042;-73
2021/04/11 10:05:30;;;;;;;4.80;1.30;;;;;;;;;;5140482;27;20123;-75
2021/04/11 10:08:14;;;;;;;6.30;1.65;;;;;;;;;;5146063;27;20059;-72
2021/04/11 10:10:46;;;;;;;5.20;1.30;;;;;;;;;;5146574;27;20061;-73
2021/04/11 10:13:12;;;;;;;6.43;1.58;;;;;;;;;;5120774;27;20044;-74
2021/04/11 10:15:43;;;;;;;5.07;1.10;;;;;;;;;;5145523;27;20039;-74
2021/04/11 10:18:30;;;;;;;2.47;1.13;;;;;;;;;;5138787;27;20415;-74
2021/04/11 10:21:03;;;;;;;7.65;1.83;;;;;;;;;;5112856;27;20038;-74
2021/04/11 10:23:58;;;;;;;3.10;1.25;;;;;;;;;;5153612;27;20039;-74
2021/04/11 10:26:27;;;;;;;4.82;1.08;;;;;;;;;;5130414;27;20057;-71
2021/04/11 10:29:01;;;;;;;5.68;1.23;;;;;;;;;;5140091;27;20035;-70
2021/04/11 10:31:27;;;;;;;;;;;;;;;;;;5143579;27;20054;-70
2021/04/11 10:34:02;;;;;;;7.40;1.52;;;;;;;;;;5141164;27;19915;-71
2021/04/11 10:36:31;;;;;;;2.45;1.40;;;;;;;;;;5145622;27;20035;-69
2021/04/11 10:39:01;;;;;;;2.33;0.93;;;;;;;;;;5134410;27;20054;-71
2021/04/11 10:41:31;;;;;;;4.30;1.20;;;;;;;;;;5139756;27;20546;-70
2021/04/11 10:44:07;;;;;;;5.38;0.77;;;;;;;;;;5135766;27;20082;-71
2021/04/11 10:46:36;;;;;;;3.40;0.82;;;;;;;;;;5138413;27;20035;-71
2021/04/11 10:49:05;;;;;;;3.25;0.80;;;;;;;;;;5125660;27;20429;-72
2021/04/11 10:51:43;;;;;;;3.67;1.10;;;;;;;;;;5137209;27;20053;-72
2021/04/11 10:54:28;;;;;;;4.57;1.60;;;;;;;;;;5138647;27;20071;-72
2021/04/11 10:57:17;;;;;;;4.03;0.93;;;;;;;;;;5137902;27;20035;-73
2021/04/11 10:59:50;;;;;;;3.40;1.10;;;;;;;;;;5138488;27;20089;-74
2021/04/11 11:02:16;;;;;;;3.28;1.00;;;;;;;;;;5126468;27;20046;-74
2021/04/11 11:04:58;;;;;;;8.02;1.38;;;;;;;;;;5137095;27;20093;-71
2021/04/11 11:07:30;;;;;;;10.05;1.67;;;;;;;;;;5143262;27;20057;-71
2021/04/11 11:10:07;;;;;;;4.75;1.33;;;;;;;;;;5141411;27;20059;-71
2021/04/11 11:12:42;;;;;;;4.57;1.58;;;;;;;;;;5140521;27;20398;-71
2021/04/11 11:15:08;;;;;;;6.97;1.35;;;;;;;;;;5141819;27;20050;-71
2021/04/11 11:17:44;;;;;;;5.55;1.20;;;;;;;;;;5142329;27;20066;-71
2021/04/11 11:20:30;;;;;;;10.13;1.52;;;;;;;;;;5141352;27;20069;-71
2021/04/11 11:22:57;;;;;;;5.47;1.38;;;;;;;;;;5136992;27;20344;-70
2021/04/11 11:25:23;;;;;;;5.95;1.10;;;;;;;;;;5139652;27;20109;-70
2021/04/11 11:27:52;;;;;;;4.95;1.00;;;;;;;;;;5112468;27;20083;-71
2021/04/11 11:30:23;;;;;;;3.80;0.93;;;;;;;;;;5138004;27;20485;-72
2021/04/11 11:32:58;;;;;;;4.00;1.23;;;;;;;;;;5135583;27;20198;-72
2021/04/11 11:35:24;;;;;;;6.15;1.40;;;;;;;;;;5126920;27;20123;-72
2021/04/11 11:37:52;;;;;;;5.30;1.20;;;;;;;;;;5129477;27;20099;-72
2021/04/11 11:40:24;;;;;;;5.10;1.10;;;;;;;;;;5137052;27;20050;-72
2021/04/11 11:42:50;;;;;;;4.57;1.33;;;;;;;;;;5140121;27;20043;-72
2021/04/11 11:45:19;;;;;;;4.75;1.10;;;;;;;;;;5142718;27;20051;-73
2021/04/11 11:47:58;;;;;;;4.93;1.10;;;;;;;;;;5144796;27;20043;-73
2021/04/11 11:50:32;;;;;;;7.60;1.38;;;;;;;;;;5126278;27;20084;-73
2021/04/11 11:53:11;;;;;;;7.45;1.02;;;;;;;;;;5106714;27;20057;-74
2021/04/11 11:55:45;;;;;;;6.40;1.10;;;;;;;;;;5142394;27;20115;-74
2021/04/11 11:58:11;;;;;;;;;;;;;;;;;;5142144;27;20126;-74
2021/04/11 12:00:40;;;;;;;5.03;1.05;;;;;;;;;;5117643;27;19931;-73
2021/04/11 12:03:17;;;;;;;3.78;1.70;;;;;;;;;;5118232;27;20092;-73
2021/04/11 12:05:53;;;;;;;7.53;1.20;;;;;;;;;;5118284;27;20492;-74
2021/04/11 12:08:39;;;;;;;9.10;1.23;;;;;;;;;;5115008;27;20043;-72
2021/04/11 12:11:18;;;;;;;5.47;1.20;;;;;;;;;;5117423;27;20031;-74
2021/04/11 12:13:48;;;;;;;8.50;1.15;;;;;;;;;;5113783;27;20055;-71
2021/04/11 12:16:26;;;;;;;5.18;1.00;;;;;;;;;;5120934;27;20039;-71
2021/04/11 12:18:53;;;;;;;5.13;1.10;;;;;;;;;;5104864;27;20115;-73
2021/04/11 12:21:26;;;;;;;6.15;0.90;;;;;;;;;;5120268;27;20044;-73
2021/04/11 12:23:59;;;;;;;5.80;0.82;;;;;;;;;;5116462;27;20035;-74
2021/04/11 12:26:26;;;;;;;6.82;0.98;;;;;;;;;;5129449;27;20481;-74
2021/04/11 12:28:53;;;;;;;3.30;0.90;;;;;;;;;;5131499;27;20054;-74
2021/04/11 12:31:27;;;;;;;4.55;1.08;;;;;;;;;;5127986;27;20446;-74
2021/04/11 12:34:12;;;;;;;4.93;0.88;;;;;;;;;;5124055;27;20100;-74
2021/04/11 12:36:44;;;;;;;6.70;0.93;;;;;;;;;;5119130;27;20042;-75
2021/04/11 12:39:30;;;;;;;7.05;0.80;;;;;;;;;;5105124;28;20582;-74
2021/04/11 12:42:19;;;;;;;3.67;0.60;;;;;;;;;;5125063;27;20043;-75
2021/04/11 12:44:49;;;;;;;1.10;0.43;;;;;;;;;;5131330;27;20039;-75
2021/04/11 12:47:18;;;;;;;4.70;0.50;;;;;;;;;;5121789;27;20115;-75
2021/04/11 12:49:51;;;;;;;3.72;0.80;;;;;;;;;;5126152;27;20042;-75
2021/04/11 12:52:30;;;;;;;2.25;0.50;;;;;;;;;;5133340;27;20091;-75
2021/04/11 12:54:59;;;;;;;2.85;0.45;;;;;;;;;;5131234;27;20126;-74
2021/04/11 12:57:28;;;;;;;5.47;0.70;;;;;;;;;;5133211;27;20045;-75
2021/04/11 12:59:54;;;;;;;2.78;0.50;;;;;;;;;;5132929;27;20059;-75
2021/04/11 13:02:36;;;;;;;3.97;0.75;;;;;;;;;;5153896;27;20061;-74
2021/04/11 13:05:06;;;;;;;3.50;0.80;;;;;;;;;;5149785;27;20027;-75
2021/04/11 13:07:54;;;;;;;6.90;0.90;;;;;;;;;;5135577;27;20035;-75
2021/04/11 13:10:28;;;;;;;5.65;1.00;;;;;;;;;;5125868;27;20491;-75
2021/04/11 13:12:54;;;;;;;;;;;;;;;;;;5153269;27;20034;-75
2021/04/11 13:15:43;;;;;;;5.47;0.45;;;;;;;;;;5125338;27;19925;-75
2021/04/11 13:18:20;;;;;;;3.35;0.52;;;;;;;;;;5136415;27;20039;-75
2021/04/11 13:20:52;;;;;;;2.75;0.55;;;;;;;;;;5143483;27;20035;-76
2021/04/11 13:23:18;;;;;;;4.97;1.05;;;;;;;;;;5152482;27;20437;-76
2021/04/11 13:25:50;;;;;;;5.00;1.15;;;;;;;;;;5132362;27;20034;-75
2021/04/11 13:28:29;;;;;;;3.65;0.60;;;;;;;;;;5153138;27;20034;-76
2021/04/11 13:31:09;;;;;;;4.80;0.88;;;;;;;;;;5146748;27;20031;-76
2021/04/11 13:33:38;;;;;;;3.65;0.60;;;;;;;;;;5154386;27;20054;-76
2021/04/11 13:36:05;;;;;;;2.47;0.60;;;;;;;;;;5132933;27;20030;-74
2021/04/11 13:38:34;;;;;;;3.03;0.65;;;;;;;;;;5134650;27;20422;-74
2021/04/11 13:41:22;;;;;;;1.85;0.60;;;;;;;;;;5151407;27;20031;-75
2021/04/11 13:44:08;;;;;;;5.68;0.80;;;;;;;;;;5152785;27;20039;-75
2021/04/11 13:46:47;;;;;;;4.45;1.20;;;;;;;;;;5130318;27;20049;-75
2021/04/11 13:49:22;;;;;;;2.75;1.08;;;;;;;;;;5123754;27;20118;-73
2021/04/11 13:51:53;;;;;;;4.78;0.80;;;;;;;;;;5113047;27;20043;-73
2021/04/11 13:54:39;;;;;;;3.45;0.65;;;;;;;;;;5111904;27;20047;-75
2021/04/11 13:57:05;;;;;;;4.95;0.93;;;;;;;;;;5110305;27;20050;-72
2021/04/11 13:59:46;;;;;;;4.97;1.20;;;;;;;;;;5142735;27;20038;-72
2021/04/11 14:02:25;;;;;;;4.00;0.82;;;;;;;;;;5119124;27;20086;-75
2021/04/11 14:04:52;;;;;;;3.25;0.40;;;;;;;;;;5119079;27;20051;-74
2021/04/11 14:07:20;;;;;;;7.10;0.90;;;;;;;;;;5120760;27;20058;-76
2021/04/11 14:09:54;;;;;;;1.88;0.60;;;;;;;;;;5120520;27;20046;-80
2021/04/11 14:12:20;;;;;;;;;;;;;;;;;;5120026;27;20109;-80
2021/04/11 14:14:50;;;;;;;1.55;0.50;;;;;;;;;;5104051;27;20431;-83
2021/04/11 14:17:32;;;;;;;3.50;0.40;;;;;;;;;;5140263;27;20133;-77
2021/04/11 14:20:04;;;;;;;1.67;0.50;;;;;;;;;;5121689;27;20159;-84
2021/04/11 14:22:30;;;;;;;2.88;0.50;;;;;;;;;;5147346;27;20061;-83
2021/04/11 14:25:10;;;;;;;4.18;0.60;;;;;;;;;;5134342;27;20046;-78
2021/04/11 14:27:43;;;;;;;3.05;0.50;;;;;;;;;;5154020;27;20039;-89
2021/04/11 14:30:24;;;;;;;4.22;0.60;;;;;;;;;;5150447;27;20062;-81
2021/04/11 14:33:06;;;;;;;3.30;0.50;;;;;;;;;;5120757;27;20194;-80
2021/04/11 14:35:38;;;;;;;4.10;0.60;;;;;;;;;;5122952;27;20031;-81
2021/04/11 14:38:07;;;;;;;2.30;0.70;;;;;;;;;;5144638;27;20031;-79
2021/04/11 14:40:37;;;;;;;4.25;0.75;;;;;;;;;;5152982;27;20105;-81
2021/04/11 14:43:05;;;;;;;4.38;0.60;;;;;;;;;;5136425;27;20047;-87
2021/04/11 14:45:34;;;;;;;3.15;0.60;;;;;;;;;;5155614;27;20094;-80
2021/04/11 14:48:05;;;;;;;3.47;1.25;;;;;;;;;;5151577;27;20153;-81
2021/04/11 14:50:33;;;;;;;4.38;0.65;;;;;;;;;;5155347;27;20042;-78
2021/04/11 14:53:15;;;;;;;8.45;0.90;;;;;;;;;;5135237;27;20095;-78
2021/04/11 14:55:53;;;;;;;5.80;0.90;;;;;;;;;;5128903;27;20042;-79
2021/04/11 14:58:21;;;;;;;3.90;0.82;;;;;;;;;;5117680;27;20047;-80
2021/04/11 15:01:06;;;;;;;4.93;0.50;;;;;;;;;;5116427;27;20054;-72
2021/04/11 15:03:41;;;;;;;5.93;0.80;;;;;;;;;;5141800;27;20453;-78
2021/04/11 15:06:12;;;;;;;4.95;0.93;;;;;;;;;;5120858;27;20141;-78
2021/04/11 15:08:55;;;;;;;3.63;0.65;;;;;;;;;;5126415;27;20054;-79
2021/04/11 15:11:21;;;;;;;6.50;1.00;;;;;;;;;;5108633;27;20058;-78
2021/04/11 15:13:50;;;;;;;3.55;0.77;;;;;;;;;;5128542;27;20043;-77